createdAt,value
2017-04-21T00:00:48.181Z,2.10
2017-04-21T00:01:48.715Z,2.10
2017-04-21T00:02:49.840Z,2.00
2017-04-21T00:03:49.806Z,2.10
2017-04-21T00:04:49.843Z,2.10
2017-04-21T00:05:49.642Z,2.00
2017-04-21T00:06:49.641Z,2.00
2017-04-21T00:07:49.967Z,2.00
2017-04-21T00:08:50.008Z,2.00
2017-04-21T00:09:49.793Z,2.00
2017-04-21T00:10:50.479Z,2.00
2017-04-21T00:11:50.803Z,2.00
2017-04-21T00:12:51.051Z,1.90
2017-04-21T00:13:51.104Z,1.90
2017-04-21T00:14:51.074Z,1.90
2017-04-21T00:15:51.170Z,1.90
2017-04-21T00:16:51.236Z,1.90
2017-04-21T00:17:51.389Z,1.80
2017-04-21T00:18:51.517Z,1.80
2017-04-21T00:19:51.513Z,1.80
2017-04-21T00:20:51.559Z,1.80
2017-04-21T00:21:51.557Z,1.70
2017-04-21T00:22:51.831Z,1.70
2017-04-21T00:23:51.918Z,1.70
2017-04-21T00:24:52.664Z,1.70
2017-04-21T00:25:52.623Z,1.70
2017-04-21T00:26:52.663Z,1.70
2017-04-21T00:27:53.066Z,1.70
2017-04-21T00:28:53.778Z,1.70
2017-04-21T00:29:53.829Z,1.70
2017-04-21T00:30:53.708Z,1.60
2017-04-21T00:31:53.453Z,1.60
2017-04-21T00:32:53.909Z,1.60
2017-04-21T00:33:53.909Z,1.60
2017-04-21T00:34:53.894Z,1.60
2017-04-21T00:35:53.902Z,1.60
2017-04-21T00:36:53.893Z,1.60
2017-04-21T00:37:54.033Z,1.60
2017-04-21T00:38:54.000Z,1.60
2017-04-21T00:39:54.824Z,1.60
2017-04-21T00:40:54.864Z,1.60
2017-04-21T00:41:54.832Z,1.60
2017-04-21T00:42:55.125Z,1.60
2017-04-21T00:43:55.083Z,1.60
2017-04-21T00:44:55.048Z,1.60
2017-04-21T00:45:55.021Z,1.60
2017-04-21T00:46:55.765Z,1.60
2017-04-21T00:47:56.069Z,1.60
2017-04-21T00:48:56.014Z,1.60
2017-04-21T00:49:56.739Z,1.50
2017-04-21T00:50:56.620Z,1.60
2017-04-21T00:51:56.694Z,1.50
2017-04-21T00:52:57.836Z,1.50
2017-04-21T00:53:58.542Z,1.50
2017-04-21T00:54:58.541Z,1.50
2017-04-21T00:55:58.503Z,1.50
2017-04-21T00:56:58.481Z,1.50
2017-04-21T00:57:58.541Z,1.40
2017-04-21T00:58:58.627Z,1.50
2017-04-21T00:59:58.617Z,1.40
2017-04-21T01:00:58.607Z,1.50
2017-04-21T01:01:58.617Z,1.50
2017-04-21T01:02:58.909Z,1.40
2017-04-21T01:03:59.028Z,1.40
2017-04-21T01:04:59.003Z,1.40
2017-04-21T01:05:59.039Z,1.40
2017-04-21T01:06:59.122Z,1.40
2017-04-21T01:07:59.437Z,1.40
2017-04-21T01:08:59.193Z,1.40
2017-04-21T01:09:58.978Z,1.40
2017-04-21T01:10:58.976Z,1.40
2017-04-21T01:11:59.025Z,1.40
2017-04-21T01:12:59.452Z,1.40
2017-04-21T01:13:59.495Z,1.40
2017-04-21T01:14:59.573Z,1.40
2017-04-21T01:15:59.629Z,1.40
2017-04-21T01:16:59.597Z,1.40
2017-04-21T01:17:59.923Z,1.40
2017-04-21T01:18:59.890Z,1.40
2017-04-21T01:19:59.894Z,1.40
2017-04-21T01:20:59.984Z,1.30
2017-04-21T01:22:00.034Z,1.30
2017-04-21T01:23:00.420Z,1.30
2017-04-21T01:24:00.380Z,1.30
2017-04-21T01:25:00.393Z,1.30
2017-04-21T01:26:00.389Z,1.30
2017-04-21T01:27:00.361Z,1.30
2017-04-21T01:28:00.688Z,1.30
2017-04-21T01:29:00.738Z,1.20
2017-04-21T01:30:00.771Z,1.30
2017-04-21T01:31:01.522Z,1.20
2017-04-21T01:32:01.347Z,1.30
2017-04-21T01:33:01.758Z,1.30
2017-04-21T01:34:02.515Z,1.30
2017-04-21T01:35:02.488Z,1.20
2017-04-21T01:36:03.114Z,1.20
2017-04-21T01:37:03.135Z,1.20
2017-04-21T01:38:03.420Z,1.30
2017-04-21T01:39:04.273Z,1.20
2017-04-21T01:40:04.334Z,1.20
2017-04-21T01:41:04.439Z,1.20
2017-04-21T01:42:04.173Z,1.20
2017-04-21T01:43:04.586Z,1.20
2017-04-21T01:44:05.093Z,1.30
2017-04-21T01:45:05.066Z,1.20
2017-04-21T01:46:05.064Z,1.20
2017-04-21T01:47:05.816Z,1.20
2017-04-21T01:48:06.173Z,1.20
2017-04-21T01:49:06.159Z,1.20
2017-04-21T01:50:06.065Z,1.20
2017-04-21T01:51:06.187Z,1.20
2017-04-21T01:52:06.122Z,1.10
2017-04-21T01:53:06.467Z,1.10
2017-04-21T01:54:06.475Z,1.10
2017-04-21T01:55:06.463Z,1.10
2017-04-21T01:56:06.471Z,1.10
2017-04-21T01:57:06.473Z,1.00
2017-04-21T01:58:06.814Z,1.10
2017-04-21T01:59:06.796Z,1.00
2017-04-21T02:00:06.564Z,1.00
2017-04-21T02:01:06.548Z,1.00
2017-04-21T02:02:06.584Z,1.00
2017-04-21T02:03:07.029Z,1.00
2017-04-21T02:04:07.010Z,1.00
2017-04-21T02:05:07.028Z,1.00
2017-04-21T02:06:07.093Z,1.00
2017-04-21T02:07:07.061Z,1.00
2017-04-21T02:08:08.185Z,1.00
2017-04-21T02:09:08.185Z,1.00
2017-04-21T02:10:08.232Z,1.00
2017-04-21T02:11:08.982Z,1.00
2017-04-21T02:12:09.005Z,1.00
2017-04-21T02:13:09.112Z,1.00
2017-04-21T02:14:09.902Z,1.00
2017-04-21T02:15:10.044Z,1.00
2017-04-21T02:16:09.993Z,1.00
2017-04-21T02:17:09.809Z,1.00
2017-04-21T02:18:09.919Z,0.90
2017-04-21T02:19:09.925Z,0.90
2017-04-21T02:20:10.056Z,0.90
2017-04-21T02:21:10.055Z,0.90
2017-04-21T02:22:10.124Z,1.00
2017-04-21T02:23:11.641Z,0.90
2017-04-21T02:24:11.751Z,1.00
2017-04-21T02:25:11.787Z,0.90
2017-04-21T02:26:11.775Z,0.90
2017-04-21T02:27:11.773Z,0.90
2017-04-21T02:28:12.007Z,0.90
2017-04-21T02:29:12.078Z,0.90
2017-04-21T02:30:12.094Z,0.90
2017-04-21T02:31:12.120Z,0.90
2017-04-21T02:32:12.108Z,0.90
2017-04-21T02:33:12.535Z,0.90
2017-04-21T02:34:12.534Z,0.90
2017-04-21T02:35:12.583Z,0.90
2017-04-21T02:36:12.622Z,0.90
2017-04-21T02:37:12.575Z,0.90
2017-04-21T02:38:12.987Z,0.90
2017-04-21T02:39:13.005Z,0.90
2017-04-21T02:40:13.713Z,0.80
2017-04-21T02:41:13.796Z,0.80
2017-04-21T02:42:13.805Z,0.80
2017-04-21T02:43:14.158Z,0.80
2017-04-21T02:44:14.095Z,0.90
2017-04-21T02:45:14.046Z,0.80
2017-04-21T02:46:14.017Z,0.80
2017-04-21T02:47:13.779Z,0.80
2017-04-21T02:48:14.623Z,0.80
2017-04-21T02:49:20.866Z,0.80
2017-04-21T02:50:20.837Z,0.80
2017-04-21T02:51:20.873Z,0.80
2017-04-21T02:52:20.854Z,0.80
2017-04-21T02:53:21.275Z,0.80
2017-04-21T02:54:21.249Z,0.80
2017-04-21T02:55:21.228Z,0.80
2017-04-21T02:56:21.213Z,0.80
2017-04-21T02:57:21.236Z,0.80
2017-04-21T02:58:21.632Z,0.80
2017-04-21T02:59:21.630Z,0.80
2017-04-21T03:00:21.702Z,0.80
2017-04-21T03:01:21.674Z,0.80
2017-04-21T03:02:21.632Z,0.80
2017-04-21T03:03:22.049Z,0.80
2017-04-21T03:04:22.079Z,0.80
2017-04-21T03:05:22.085Z,0.80
2017-04-21T03:06:22.122Z,0.80
2017-04-21T03:07:22.109Z,0.80
2017-04-21T03:08:22.508Z,0.80
2017-04-21T03:09:23.225Z,0.80
2017-04-21T03:10:24.003Z,0.80
2017-04-21T03:11:23.990Z,0.80
2017-04-21T03:12:23.961Z,0.80
2017-04-21T03:13:25.084Z,0.70
2017-04-21T03:14:25.072Z,0.80
2017-04-21T03:15:25.093Z,0.80
2017-04-21T03:16:25.139Z,0.70
2017-04-21T03:17:25.087Z,0.70
2017-04-21T03:18:25.441Z,0.70
2017-04-21T03:19:25.396Z,0.70
2017-04-21T03:20:25.405Z,0.70
2017-04-21T03:21:25.362Z,0.70
2017-04-21T03:22:25.351Z,0.70
2017-04-21T03:23:27.452Z,0.70
2017-04-21T03:24:27.427Z,0.70
2017-04-21T03:25:27.424Z,0.70
2017-04-21T03:26:27.399Z,0.70
2017-04-21T03:27:27.369Z,0.70
2017-04-21T03:28:27.744Z,0.60
2017-04-21T03:29:28.467Z,0.70
2017-04-21T03:30:29.175Z,0.90
2017-04-21T03:31:29.159Z,1.20
2017-04-21T03:32:29.166Z,1.50
2017-04-21T03:33:29.497Z,1.80
2017-04-21T03:34:29.479Z,2.30
2017-04-21T03:35:29.409Z,2.80
2017-04-21T03:36:29.420Z,3.20
2017-04-21T03:37:29.341Z,3.60
2017-04-21T03:38:30.399Z,4.00
2017-04-21T03:39:30.358Z,4.30
2017-04-21T03:42:00.816Z,5.00
2017-04-21T03:43:00.798Z,5.20
2017-04-21T03:44:03.664Z,5.40
2017-04-21T03:45:03.733Z,5.50
2017-04-21T03:46:03.770Z,5.60
2017-04-21T03:47:05.742Z,5.70
2017-04-21T03:48:06.586Z,5.80
2017-04-21T03:49:06.665Z,6.00
2017-04-21T03:50:06.654Z,6.10
2017-04-21T03:51:06.673Z,6.20
2017-04-21T03:52:06.617Z,6.30
2017-04-21T03:53:06.546Z,6.40
2017-04-21T03:54:06.860Z,6.50
2017-04-21T03:55:06.794Z,6.50
2017-04-21T03:56:06.743Z,6.60
2017-04-21T03:57:06.689Z,6.60
2017-04-21T03:58:06.733Z,6.70
2017-04-21T03:59:07.826Z,6.70
2017-04-21T04:00:07.838Z,6.80
2017-04-21T04:01:07.815Z,6.80
2017-04-21T04:02:07.757Z,6.90
2017-04-21T04:03:07.712Z,6.90
2017-04-21T04:04:08.086Z,6.70
2017-04-21T04:05:08.037Z,6.50
2017-04-21T04:06:08.093Z,6.20
2017-04-21T04:07:08.088Z,5.90
2017-04-21T04:08:07.923Z,5.60
2017-04-21T04:09:09.715Z,5.30
2017-04-21T04:10:09.808Z,5.00
2017-04-21T04:11:09.792Z,4.70
2017-04-21T04:12:09.591Z,4.50
2017-04-21T04:13:09.526Z,4.20
2017-04-21T04:14:09.906Z,4.00
2017-04-21T04:15:09.860Z,3.70
2017-04-21T04:16:09.786Z,3.50
2017-04-21T04:17:09.752Z,3.30
2017-04-21T04:18:09.827Z,3.20
2017-04-21T04:19:10.968Z,2.90
2017-04-21T04:20:10.906Z,2.80
2017-04-21T04:21:10.822Z,2.60
2017-04-21T04:22:10.816Z,2.50
2017-04-21T04:23:10.761Z,2.30
2017-04-21T04:24:11.110Z,2.30
2017-04-21T04:25:11.101Z,2.40
2017-04-21T04:26:11.090Z,2.70
2017-04-21T04:27:10.904Z,3.00
2017-04-21T04:28:11.591Z,3.30
2017-04-21T04:29:11.903Z,3.50
2017-04-21T04:30:11.805Z,3.60
2017-04-21T04:31:11.822Z,3.60
2017-04-21T04:32:11.769Z,3.50
2017-04-21T04:33:11.691Z,3.40
2017-04-21T04:34:12.039Z,3.20
2017-04-21T04:35:12.053Z,3.10
2017-04-21T04:36:12.075Z,2.90
2017-04-21T04:37:12.761Z,2.80
2017-04-21T04:38:13.034Z,2.70
2017-04-21T04:39:13.406Z,2.60
2017-04-21T04:40:13.412Z,2.60
2017-04-21T04:41:13.351Z,2.50
2017-04-21T04:42:13.307Z,2.40
2017-04-21T04:43:13.326Z,2.30
2017-04-21T04:44:13.733Z,2.20
2017-04-21T04:45:13.727Z,2.10
2017-04-21T04:46:13.805Z,2.00
2017-04-21T04:47:13.626Z,2.00
2017-04-21T04:48:13.491Z,1.90
2017-04-21T04:49:14.624Z,1.80
2017-04-21T04:50:15.346Z,1.70
2017-04-21T04:51:15.325Z,1.70
2017-04-21T04:52:15.315Z,1.60
2017-04-21T04:53:15.318Z,1.60
2017-04-21T04:54:15.367Z,1.50
2017-04-21T04:55:15.371Z,1.50
2017-04-21T04:56:16.066Z,1.40
2017-04-21T04:57:16.060Z,1.40
2017-04-21T04:58:16.785Z,1.40
2017-04-21T04:59:17.126Z,1.40
2017-04-21T05:00:17.908Z,1.40
2017-04-21T05:01:17.902Z,1.40
2017-04-21T05:02:17.828Z,1.40
2017-04-21T05:03:17.860Z,1.40
2017-04-21T05:04:18.172Z,1.50
2017-04-21T05:05:18.211Z,1.50
2017-04-21T05:06:18.271Z,1.50
2017-04-21T05:07:18.247Z,1.50
2017-04-21T05:08:18.224Z,1.50
2017-04-21T05:09:18.609Z,1.50
2017-04-21T05:10:18.642Z,1.40
2017-04-21T05:11:19.421Z,1.40
2017-04-21T05:12:19.377Z,1.40
2017-04-21T05:13:19.439Z,1.40
2017-04-21T05:14:19.772Z,1.40
2017-04-21T05:15:19.735Z,1.40
2017-04-21T05:16:19.726Z,1.40
2017-04-21T05:17:19.647Z,1.40
2017-04-21T05:18:19.619Z,1.40
2017-04-21T05:22:30.657Z,1.30
2017-04-21T05:23:30.696Z,1.30
2017-04-21T05:24:31.396Z,1.30
2017-04-21T05:25:31.359Z,1.30
2017-04-21T05:26:31.152Z,1.30
2017-04-21T05:27:31.527Z,1.30
2017-04-21T05:28:31.482Z,1.30
2017-04-21T05:29:31.620Z,1.30
2017-04-21T05:30:31.624Z,1.30
2017-04-21T05:32:55.816Z,1.30
2017-04-21T05:33:55.870Z,1.30
2017-04-21T05:34:55.994Z,1.40
2017-04-21T05:35:55.926Z,1.40
2017-04-21T05:36:55.927Z,1.40
2017-04-21T05:37:56.207Z,1.40
2017-04-21T05:38:56.165Z,1.40
2017-04-21T05:39:56.342Z,1.40
2017-04-21T05:40:56.341Z,1.40
2017-04-21T05:41:56.295Z,1.50
2017-04-21T05:42:57.133Z,1.50
2017-04-21T05:43:57.136Z,1.50
2017-04-21T05:44:57.839Z,1.50
2017-04-21T05:45:57.800Z,1.60
2017-04-21T05:46:57.759Z,1.60
2017-04-21T05:47:58.591Z,1.60
2017-04-21T05:48:59.296Z,1.70
2017-04-21T05:49:59.223Z,1.80
2017-04-21T05:50:59.887Z,1.80
2017-04-21T05:51:59.830Z,1.80
2017-04-21T05:52:59.950Z,1.80
2017-04-21T05:54:00.007Z,1.90
2017-04-21T05:55:01.480Z,1.90
2017-04-21T05:56:01.207Z,1.90
2017-04-21T05:57:01.179Z,1.90
2017-04-21T05:58:01.509Z,2.00
2017-04-21T05:59:01.324Z,2.00
2017-04-21T06:00:02.030Z,2.10
2017-04-21T06:01:01.763Z,2.10
2017-04-21T06:02:01.582Z,2.10
2017-04-21T06:03:01.842Z,2.20
2017-04-21T06:04:01.788Z,2.20
2017-04-21T06:05:01.736Z,2.20
2017-04-21T06:06:01.769Z,2.30
2017-04-21T06:07:02.594Z,2.50
2017-04-21T06:08:02.914Z,2.60
2017-04-21T06:09:03.036Z,2.60
2017-04-21T06:10:03.030Z,2.70
2017-04-21T06:11:03.757Z,2.70
2017-04-21T06:12:03.716Z,2.80
2017-04-21T06:13:04.154Z,2.80
2017-04-21T06:14:04.201Z,2.80
2017-04-21T06:15:04.215Z,2.80
2017-04-21T06:16:04.092Z,2.90
2017-04-21T06:17:04.232Z,2.90
2017-04-21T06:18:04.600Z,3.00
2017-04-21T06:19:04.593Z,3.00
2017-04-21T06:20:04.583Z,3.00
2017-04-21T06:21:04.669Z,3.10
2017-04-21T06:22:04.637Z,3.10
2017-04-21T06:23:05.741Z,3.10
2017-04-21T06:24:05.694Z,3.20
2017-04-21T06:25:05.726Z,3.20
2017-04-21T06:26:05.563Z,3.30
2017-04-21T06:27:05.568Z,3.30
2017-04-21T06:28:05.912Z,3.30
2017-04-21T06:29:05.930Z,3.40
2017-04-21T06:30:05.918Z,3.40
2017-04-21T06:31:05.978Z,3.40
2017-04-21T06:32:06.053Z,3.40
2017-04-21T06:33:06.404Z,3.40
2017-04-21T06:34:06.412Z,3.40
2017-04-21T06:35:06.267Z,3.40
2017-04-21T06:36:06.293Z,3.40
2017-04-21T06:37:06.277Z,3.40
2017-04-21T06:38:06.617Z,3.40
2017-04-21T06:39:06.563Z,3.50
2017-04-21T06:40:06.539Z,3.40
2017-04-21T06:41:06.391Z,3.50
2017-04-21T06:42:06.502Z,3.50
2017-04-21T06:43:07.609Z,3.50
2017-04-21T06:44:07.615Z,3.50
2017-04-21T06:45:07.671Z,3.50
2017-04-21T06:46:07.631Z,3.60
2017-04-21T06:47:07.611Z,3.60
2017-04-21T06:48:07.616Z,3.60
2017-04-21T06:49:08.373Z,3.60
2017-04-21T06:50:09.051Z,3.70
2017-04-21T06:51:09.028Z,3.70
2017-04-21T06:52:09.009Z,3.80
2017-04-21T06:53:10.142Z,3.80
2017-04-21T06:54:10.848Z,3.80
2017-04-21T06:55:11.085Z,3.90
2017-04-21T06:56:11.858Z,3.90
2017-04-21T06:57:11.856Z,3.90
2017-04-21T06:58:12.154Z,4.00
2017-04-21T06:59:12.147Z,4.00
2017-04-21T07:00:12.154Z,4.10
2017-04-21T07:01:12.176Z,4.20
2017-04-21T07:02:12.146Z,4.20
2017-04-21T07:03:12.549Z,4.20
2017-04-21T07:04:12.589Z,4.30
2017-04-21T07:05:12.582Z,4.30
2017-04-21T07:06:12.653Z,4.30
2017-04-21T07:07:12.794Z,4.40
2017-04-21T07:08:13.894Z,4.40
2017-04-21T07:09:13.866Z,4.40
2017-04-21T07:10:13.852Z,4.40
2017-04-21T07:11:13.596Z,4.50
2017-04-21T07:12:13.600Z,4.50
2017-04-21T07:13:14.336Z,4.50
2017-04-21T07:14:15.064Z,4.50
2017-04-21T07:15:18.050Z,4.50
2017-04-21T07:16:17.982Z,4.50
2017-04-21T07:17:18.026Z,4.60
2017-04-21T07:18:18.306Z,4.60
2017-04-21T07:19:18.342Z,4.60
2017-04-21T07:20:18.264Z,4.60
2017-04-21T07:21:18.230Z,4.60
2017-04-21T07:22:18.164Z,4.60
2017-04-21T07:23:18.498Z,4.60
2017-04-21T07:24:18.477Z,4.60
2017-04-21T07:25:18.458Z,4.60
2017-04-21T07:26:18.446Z,4.70
2017-04-21T07:27:18.483Z,4.70
2017-04-21T07:28:18.852Z,4.70
2017-04-21T07:29:19.594Z,4.70
2017-04-21T07:30:20.589Z,4.80
2017-04-21T07:31:20.557Z,4.80
2017-04-21T07:32:20.517Z,4.90
2017-04-21T07:33:20.803Z,4.90
2017-04-21T07:34:20.770Z,4.90
2017-04-21T07:35:20.714Z,4.90
2017-04-21T07:36:20.787Z,5.00
2017-04-21T07:37:20.835Z,5.00
2017-04-21T07:38:21.241Z,5.00
2017-04-21T07:39:21.169Z,5.00
2017-04-21T07:40:21.193Z,5.00
2017-04-21T07:41:21.807Z,5.00
2017-04-21T07:42:21.838Z,5.00
2017-04-21T07:43:22.117Z,5.10
2017-04-21T07:44:22.904Z,5.10
2017-04-21T07:45:22.856Z,5.10
2017-04-21T07:46:22.892Z,5.10
2017-04-21T07:47:22.854Z,5.20
2017-04-21T07:48:23.196Z,5.20
2017-04-21T07:49:23.223Z,5.20
2017-04-21T07:50:23.174Z,5.20
2017-04-21T07:51:23.181Z,5.30
2017-04-21T07:52:23.295Z,5.30
2017-04-21T07:53:23.534Z,5.40
2017-04-21T07:54:23.524Z,5.40
2017-04-21T07:55:23.571Z,5.40
2017-04-21T07:56:23.644Z,5.50
2017-04-21T07:57:23.595Z,5.50
2017-04-21T07:58:23.918Z,5.60
2017-04-21T07:59:23.877Z,5.60
2017-04-21T08:00:23.956Z,5.70
2017-04-21T08:01:23.942Z,5.80
2017-04-21T08:02:23.941Z,5.80
2017-04-21T08:03:24.248Z,5.90
2017-04-21T08:04:24.253Z,6.00
2017-04-21T08:05:24.261Z,6.00
2017-04-21T08:06:24.309Z,6.00
2017-04-21T08:07:24.320Z,6.10
2017-04-21T08:08:24.693Z,6.20
2017-04-21T08:09:24.686Z,6.20
2017-04-21T08:10:24.543Z,6.30
2017-04-21T08:11:25.318Z,6.30
2017-04-21T08:12:25.337Z,6.40
2017-04-21T08:13:25.677Z,6.40
2017-04-21T08:14:25.685Z,6.40
2017-04-21T08:15:25.759Z,6.40
2017-04-21T08:16:25.757Z,6.40
2017-04-21T08:17:25.777Z,6.40
2017-04-21T08:18:26.112Z,6.40
2017-04-21T08:19:26.831Z,6.50
2017-04-21T08:20:26.808Z,6.50
2017-04-21T08:21:26.818Z,6.50
2017-04-21T08:22:26.994Z,6.60
2017-04-21T08:23:27.380Z,6.60
2017-04-21T08:24:27.490Z,6.60
2017-04-21T08:25:28.166Z,6.60
2017-04-21T08:26:28.914Z,6.60
2017-04-21T08:27:28.840Z,6.60
2017-04-21T08:28:29.867Z,6.70
2017-04-21T08:29:29.892Z,6.70
2017-04-21T08:30:29.839Z,6.70
2017-04-21T08:31:29.830Z,6.70
2017-04-21T08:32:29.808Z,6.70
2017-04-21T08:33:30.175Z,6.70
2017-04-21T08:34:30.012Z,6.70
2017-04-21T08:35:30.028Z,6.70
2017-04-21T08:36:29.958Z,6.70
2017-04-21T08:37:29.927Z,6.70
2017-04-21T08:38:31.023Z,6.60
2017-04-21T08:39:31.007Z,6.70
2017-04-21T08:40:30.998Z,6.70
2017-04-21T08:41:30.754Z,6.70
2017-04-21T08:42:30.841Z,6.70
2017-04-21T08:43:31.262Z,6.80
2017-04-21T08:44:31.842Z,6.80
2017-04-21T08:45:31.583Z,6.90
2017-04-21T08:46:31.600Z,6.90
2017-04-21T08:47:31.566Z,6.90
2017-04-21T08:48:32.053Z,7.00
2017-04-21T08:49:32.005Z,7.00
2017-04-21T08:50:32.029Z,7.00
2017-04-21T08:51:32.001Z,7.00
2017-04-21T08:52:31.974Z,7.00
2017-04-21T08:53:32.466Z,7.10
2017-04-21T08:54:32.487Z,7.20
2017-04-21T08:55:32.474Z,7.20
2017-04-21T08:56:33.218Z,7.30
2017-04-21T08:57:34.153Z,7.30
2017-04-21T08:58:34.424Z,7.40
2017-04-21T08:59:34.428Z,7.40
2017-04-21T09:00:34.505Z,7.50
2017-04-21T09:01:34.533Z,7.50
2017-04-21T09:02:35.236Z,7.50
2017-04-21T09:03:35.531Z,7.60
2017-04-21T09:04:35.610Z,7.60
2017-04-21T09:05:36.363Z,7.50
2017-04-21T09:06:36.328Z,7.60
2017-04-21T09:07:36.376Z,7.60
2017-04-21T09:08:36.739Z,7.60
2017-04-21T09:09:36.686Z,7.70
2017-04-21T09:10:36.635Z,7.70
2017-04-21T09:11:37.348Z,7.60
2017-04-21T09:12:37.558Z,7.60
2017-04-21T09:13:37.839Z,7.60
2017-04-21T09:14:37.914Z,7.60
2017-04-21T09:15:37.881Z,7.60
2017-04-21T09:16:37.988Z,7.60
2017-04-21T09:17:37.965Z,7.60
2017-04-21T09:18:38.326Z,7.70
2017-04-21T09:19:38.409Z,7.70
2017-04-21T09:20:38.359Z,7.70
2017-04-21T09:21:38.376Z,7.70
2017-04-21T09:22:39.070Z,7.80
2017-04-21T09:23:39.289Z,7.80
2017-04-21T09:24:39.283Z,7.80
2017-04-21T09:25:39.345Z,7.90
2017-04-21T09:26:39.266Z,7.90
2017-04-21T09:27:39.332Z,7.90
2017-04-21T09:28:40.509Z,7.90
2017-04-21T09:29:41.272Z,7.90
2017-04-21T09:30:41.225Z,7.90
2017-04-21T09:31:41.148Z,7.90
2017-04-21T09:32:41.211Z,8.00
2017-04-21T09:33:41.606Z,8.00
2017-04-21T09:34:41.538Z,8.00
2017-04-21T09:35:41.565Z,8.00
2017-04-21T09:36:41.572Z,8.00
2017-04-21T09:37:41.351Z,8.00
2017-04-21T09:38:42.456Z,8.00
2017-04-21T09:39:42.585Z,8.00
2017-04-21T09:40:43.384Z,7.90
2017-04-21T09:41:43.457Z,8.00
2017-04-21T09:42:51.587Z,8.00
2017-04-21T09:43:51.895Z,8.10
2017-04-21T09:44:51.961Z,8.20
2017-04-21T09:45:51.866Z,8.30
2017-04-21T09:46:51.878Z,8.40
2017-04-21T09:47:51.895Z,8.40
2017-04-21T09:48:52.233Z,8.50
2017-04-21T09:49:52.165Z,8.50
2017-04-21T09:50:52.670Z,8.50
2017-04-21T09:52:44.012Z,8.50
2017-04-21T09:53:34.119Z,8.50
2017-04-21T09:54:52.991Z,8.50
2017-04-21T09:56:47.394Z,8.50
2017-04-21T09:57:04.296Z,8.30
2017-04-21T09:58:30.531Z,8.40
2017-04-21T10:01:52.994Z,8.50
2017-04-21T10:02:28.201Z,8.30
2017-04-21T10:02:39.565Z,8.30
2017-04-21T10:04:00.300Z,8.30
2017-04-21T10:04:11.437Z,8.40
2017-04-21T10:04:54.032Z,8.80
2017-04-21T10:05:10.146Z,8.60
2017-04-21T10:05:54.028Z,8.90
2017-04-21T10:07:00.726Z,8.70
2017-04-21T10:07:39.154Z,9.00
2017-04-21T10:08:11.924Z,9.10
2017-04-21T10:08:54.533Z,9.20
2017-04-21T10:09:54.504Z,9.30
2017-04-21T10:10:55.301Z,9.40
2017-04-21T10:11:55.297Z,9.50
2017-04-21T10:12:55.525Z,9.60
2017-04-21T10:13:55.815Z,9.70
2017-04-21T10:14:55.771Z,9.80
2017-04-21T10:15:55.723Z,9.90
2017-04-21T10:16:55.550Z,10.00
2017-04-21T10:17:55.610Z,10.10
2017-04-21T10:18:56.621Z,10.20
2017-04-21T10:19:56.666Z,10.30
2017-04-21T10:20:59.527Z,10.40
2017-04-21T10:22:00.267Z,10.50
2017-04-21T10:23:00.258Z,10.70
2017-04-21T10:24:01.349Z,10.80
2017-04-21T10:25:01.382Z,11.00
2017-04-21T10:26:01.326Z,11.20
2017-04-21T10:27:01.334Z,11.50
2017-04-21T10:28:01.087Z,11.70
2017-04-21T10:29:01.217Z,11.80
2017-04-21T10:30:01.157Z,11.90
2017-04-21T10:31:01.073Z,12.10
2017-04-21T10:32:02.021Z,12.20
2017-04-21T10:33:02.830Z,12.30
2017-04-21T10:34:03.164Z,12.50
2017-04-21T10:35:03.238Z,12.70
2017-04-21T10:36:03.338Z,12.80
2017-04-21T10:37:03.316Z,12.90
2017-04-21T10:38:04.062Z,12.90
2017-04-21T10:39:04.862Z,12.90
2017-04-21T10:40:04.846Z,12.90
2017-04-21T10:41:04.825Z,12.90
2017-04-21T10:42:04.823Z,12.80
2017-04-21T10:43:04.822Z,12.80
2017-04-21T10:44:05.170Z,12.60
2017-04-21T10:45:05.156Z,12.50
2017-04-21T10:46:05.137Z,12.30
2017-04-21T10:47:05.127Z,12.10
2017-04-21T10:48:05.124Z,12.00
2017-04-21T10:49:05.522Z,11.80
2017-04-21T10:50:06.570Z,11.60
2017-04-21T10:51:06.507Z,11.60
2017-04-21T10:52:06.498Z,11.50
2017-04-21T10:53:06.490Z,11.60
2017-04-21T10:54:06.858Z,11.70
2017-04-21T10:55:06.853Z,11.90
2017-04-21T10:56:06.868Z,12.00
2017-04-21T10:57:06.609Z,12.10
2017-04-21T10:58:06.435Z,12.10
2017-04-21T10:59:06.419Z,12.10
2017-04-21T11:00:06.884Z,12.10
2017-04-21T11:01:06.853Z,12.10
2017-04-21T11:02:06.827Z,12.20
2017-04-21T11:03:06.900Z,12.30
2017-04-21T11:04:06.852Z,12.40
2017-04-21T11:05:07.994Z,12.50
2017-04-21T11:06:08.025Z,12.70
2017-04-21T11:07:08.034Z,12.80
2017-04-21T11:08:08.056Z,12.70
2017-04-21T11:09:08.029Z,12.60
2017-04-21T11:10:08.225Z,12.60
2017-04-21T11:11:08.918Z,12.50
2017-04-21T11:12:08.966Z,12.50
2017-04-21T11:13:08.982Z,12.40
2017-04-21T11:14:09.002Z,12.20
2017-04-21T11:15:09.419Z,12.10
2017-04-21T11:16:09.575Z,12.00
2017-04-21T11:17:10.106Z,12.00
2017-04-21T11:18:10.056Z,12.10
2017-04-21T11:19:10.013Z,12.20
2017-04-21T11:20:11.122Z,12.40
2017-04-21T11:21:11.228Z,12.60
2017-04-21T11:22:11.225Z,12.80
2017-04-21T11:23:11.995Z,12.90
2017-04-21T11:24:11.994Z,13.00
2017-04-21T11:25:12.375Z,13.00
2017-04-21T11:26:12.454Z,13.00
2017-04-21T11:27:12.452Z,12.90
2017-04-21T11:28:12.395Z,12.80
2017-04-21T11:29:12.461Z,12.70
2017-04-21T11:30:12.822Z,12.60
2017-04-21T11:31:12.877Z,12.50
2017-04-21T11:32:13.023Z,12.50
2017-04-21T11:33:13.089Z,12.50
2017-04-21T11:34:13.084Z,12.50
2017-04-21T11:35:13.431Z,12.50
2017-04-21T11:36:13.404Z,12.60
2017-04-21T11:37:13.376Z,12.60
2017-04-21T11:38:13.392Z,12.70
2017-04-21T11:39:13.417Z,12.80
2017-04-21T11:40:14.558Z,12.80
2017-04-21T11:41:14.573Z,12.80
2017-04-21T11:42:14.723Z,13.00
2017-04-21T11:43:14.731Z,13.00
2017-04-21T11:44:14.945Z,13.10
2017-04-21T11:45:15.308Z,13.30
2017-04-21T11:46:15.323Z,13.50
2017-04-21T11:47:15.310Z,13.60
2017-04-21T11:48:16.037Z,13.70
2017-04-21T11:49:16.058Z,13.90
2017-04-21T11:50:16.460Z,13.90
2017-04-21T11:51:16.459Z,14.10
2017-04-21T11:52:16.912Z,14.20
2017-04-21T11:53:16.922Z,14.40
2017-04-21T11:54:16.976Z,14.60
2017-04-21T11:55:17.999Z,14.70
2017-04-21T11:56:17.770Z,14.70
2017-04-21T11:57:17.541Z,14.70
2017-04-21T11:58:17.590Z,14.70
2017-04-21T11:59:17.633Z,14.80
2017-04-21T12:00:18.740Z,14.90
2017-04-21T12:01:18.807Z,14.90
2017-04-21T12:02:19.601Z,14.80
2017-04-21T12:03:19.655Z,14.80
2017-04-21T12:04:19.650Z,14.80
2017-04-21T12:05:19.990Z,14.90
2017-04-21T12:06:20.192Z,14.90
2017-04-21T12:07:20.173Z,14.90
2017-04-21T12:08:20.105Z,14.80
2017-04-21T12:09:20.050Z,14.70
2017-04-21T12:10:20.534Z,14.50
2017-04-21T12:11:21.585Z,14.50
2017-04-21T12:12:21.572Z,14.40
2017-04-21T12:13:21.528Z,14.30
2017-04-21T12:14:21.507Z,14.20
2017-04-21T12:15:21.900Z,14.20
2017-04-21T12:16:21.933Z,14.10
2017-04-21T12:17:22.644Z,14.10
2017-04-21T12:18:22.630Z,14.20
2017-04-21T12:19:22.646Z,14.40
2017-04-21T12:20:23.065Z,14.50
2017-04-21T12:21:23.070Z,14.70
2017-04-21T12:22:23.054Z,14.70
2017-04-21T12:23:23.065Z,14.70
2017-04-21T12:24:23.029Z,14.50
2017-04-21T12:25:23.420Z,14.30
2017-04-21T12:26:24.186Z,14.20
2017-04-21T12:27:24.153Z,14.10
2017-04-21T12:28:24.883Z,14.10
2017-04-21T12:29:25.609Z,14.10
2017-04-21T12:30:25.882Z,14.20
2017-04-21T12:31:25.825Z,14.30
2017-04-21T12:32:25.839Z,14.40
2017-04-21T12:33:25.798Z,14.60
2017-04-21T12:34:25.793Z,14.80
2017-04-21T12:35:26.194Z,15.00
2017-04-21T12:36:26.220Z,15.20
2017-04-21T12:37:26.230Z,15.40
2017-04-21T12:38:26.203Z,15.60
2017-04-21T12:39:26.248Z,15.80
2017-04-21T12:40:26.516Z,16.00
2017-04-21T12:41:26.537Z,16.10
2017-04-21T12:42:26.549Z,16.40
2017-04-21T12:43:26.910Z,16.40
2017-04-21T12:44:27.636Z,16.40
2017-04-21T12:45:28.040Z,16.40
2017-04-21T12:46:28.809Z,16.50
2017-04-21T12:47:28.901Z,16.50
2017-04-21T12:48:29.158Z,16.50
2017-04-21T12:49:28.843Z,16.50
2017-04-21T12:50:29.000Z,16.50
2017-04-21T12:51:29.026Z,16.30
2017-04-21T12:52:28.956Z,16.00
2017-04-21T12:53:29.554Z,15.70
2017-04-21T12:54:29.562Z,15.50
2017-04-21T12:55:29.947Z,15.40
2017-04-21T12:56:29.759Z,15.30
2017-04-21T12:57:29.566Z,15.40
2017-04-21T12:58:29.575Z,15.40
2017-04-21T12:59:29.572Z,15.60
2017-04-21T13:00:29.875Z,15.70
2017-04-21T13:01:29.919Z,15.90
2017-04-21T13:02:29.790Z,15.90
2017-04-21T13:03:29.770Z,16.00
2017-04-21T13:04:29.762Z,16.20
2017-04-21T13:05:30.065Z,16.40
2017-04-21T13:06:30.102Z,16.50
2017-04-21T13:07:30.106Z,16.70
2017-04-21T13:08:30.143Z,16.90
2017-04-21T13:09:30.144Z,17.20
2017-04-21T13:10:30.534Z,17.50
2017-04-21T13:11:30.610Z,17.50
2017-04-21T13:12:30.581Z,17.60
2017-04-21T13:13:30.565Z,17.60
2017-04-21T13:14:30.494Z,17.70
2017-04-21T13:15:30.770Z,17.80
2017-04-21T13:16:30.790Z,17.80
2017-04-21T13:17:31.496Z,17.90
2017-04-21T13:18:31.750Z,17.80
2017-04-21T13:19:31.715Z,17.60
2017-04-21T13:20:32.036Z,17.50
2017-04-21T13:21:32.787Z,17.30